createdAt,value
2022-11-24T00:00:34.338Z,4.55
2022-11-24T00:03:00.978Z,5.88
2022-11-24T00:05:27.428Z,4.07
2022-11-24T00:07:53.859Z,4.63
2022-11-24T00:10:20.247Z,4.53
2022-11-24T00:12:46.611Z,4.60
2022-11-24T00:15:12.985Z,5.00
2022-11-24T00:17:39.308Z,4.30
2022-11-24T00:20:06.257Z,4.60
2022-11-24T00:22:32.768Z,4.43
2022-11-24T00:24:59.146Z,4.68
2022-11-24T00:27:25.821Z,4.07
2022-11-24T00:29:52.320Z,3.85
2022-11-24T00:32:18.685Z,4.25
2022-11-24T00:34:45.005Z,4.18
2022-11-24T00:37:11.318Z,4.80
2022-11-24T00:39:37.722Z,3.92
2022-11-24T00:42:04.046Z,4.55
2022-11-24T00:44:30.597Z,4.00
2022-11-24T00:46:57.288Z,3.67
2022-11-24T00:49:23.787Z,4.53
2022-11-24T00:51:50.115Z,3.63
2022-11-24T00:54:16.440Z,3.72
2022-11-24T00:56:42.785Z,4.15
2022-11-24T00:59:09.211Z,4.35
2022-11-24T01:01:35.976Z,3.63
2022-11-24T01:04:02.411Z,4.10
2022-11-24T01:06:29.222Z,3.58
2022-11-24T01:08:56.851Z,4.50
2022-11-24T01:11:25.174Z,4.45
2022-11-24T01:13:53.039Z,3.90
2022-11-24T01:16:24.427Z,4.72
2022-11-24T01:18:50.799Z,5.00
2022-11-24T01:21:17.886Z,4.22
2022-11-24T01:23:44.426Z,4.43
2022-11-24T01:26:12.574Z,4.55
2022-11-24T01:28:44.861Z,4.00
2022-11-24T01:31:13.501Z,3.92
2022-11-24T01:33:39.940Z,4.50
2022-11-24T01:36:06.723Z,4.07
2022-11-24T01:38:33.131Z,3.95
2022-11-24T01:41:04.009Z,3.70
2022-11-24T01:43:30.636Z,3.78
2022-11-24T01:45:57.343Z,4.07
2022-11-24T01:48:31.622Z,4.10
2022-11-24T01:51:08.289Z,3.60
2022-11-24T01:53:35.343Z,4.20
2022-11-24T01:56:02.218Z,3.50
2022-11-24T01:58:31.625Z,3.60
2022-11-24T02:00:57.980Z,4.03
2022-11-24T02:03:27.014Z,3.47
2022-11-24T02:05:53.334Z,3.67
2022-11-24T02:08:25.590Z,4.00
2022-11-24T02:10:51.945Z,3.28
2022-11-24T02:13:18.569Z,3.78
2022-11-24T02:15:45.034Z,3.42
2022-11-24T02:18:11.542Z,3.08
2022-11-24T02:20:38.143Z,2.92
2022-11-24T02:23:19.702Z,4.03
2022-11-24T02:26:21.673Z,3.20
2022-11-24T02:28:50.014Z,2.75
2022-11-24T02:31:16.504Z,3.50
2022-11-24T02:33:42.975Z,3.42
2022-11-24T02:36:09.313Z,3.42
2022-11-24T02:38:36.276Z,3.72
2022-11-24T02:41:07.128Z,3.08
2022-11-24T02:43:36.646Z,3.38
2022-11-24T02:46:03.378Z,2.78
2022-11-24T02:48:29.877Z,3.42
2022-11-24T02:50:56.387Z,3.13
2022-11-24T02:53:22.834Z,3.22
2022-11-24T02:55:49.257Z,3.08
2022-11-24T02:58:16.047Z,3.30
2022-11-24T03:00:42.437Z,3.22
2022-11-24T03:03:08.843Z,3.22
2022-11-24T03:05:35.289Z,3.58
2022-11-24T03:08:01.738Z,3.00
2022-11-24T03:10:29.055Z,3.08
2022-11-24T03:12:55.733Z,2.75
2022-11-24T03:15:23.609Z,2.95
2022-11-24T03:17:50.269Z,3.17
2022-11-24T03:20:17.127Z,2.63
2022-11-24T03:22:43.786Z,2.50
2022-11-24T03:25:10.197Z,3.15
2022-11-24T03:27:36.747Z,2.80
2022-11-24T03:30:03.523Z,2.25
2022-11-24T03:32:29.990Z,2.63
2022-11-24T03:34:56.319Z,2.40
2022-11-24T03:37:22.690Z,2.50
2022-11-24T03:39:49.464Z,2.40
2022-11-24T03:42:16.131Z,2.80
2022-11-24T03:44:42.458Z,3.20
2022-11-24T03:47:10.334Z,2.42
2022-11-24T03:49:36.847Z,2.10
2022-11-24T03:52:07.829Z,2.78
2022-11-24T03:54:35.242Z,2.50
2022-11-24T03:57:01.944Z,2.47
2022-11-24T03:59:28.286Z,2.70
2022-11-24T04:01:54.871Z,2.70
2022-11-24T04:04:21.293Z,2.58
2022-11-24T04:06:47.622Z,3.15
2022-11-24T04:09:14.111Z,3.63
2022-11-24T04:11:59.134Z,3.65
2022-11-24T04:14:25.438Z,3.47
2022-11-24T04:16:51.722Z,3.17
2022-11-24T04:19:18.313Z,3.50
2022-11-24T04:21:44.641Z,3.30
2022-11-24T04:24:10.922Z,3.40
2022-11-24T04:26:37.584Z,3.15
2022-11-24T04:29:04.266Z,3.60
2022-11-24T04:31:30.712Z,4.85
2022-11-24T04:33:57.057Z,3.97
2022-11-24T04:36:23.371Z,3.70
2022-11-24T04:39:20.083Z,3.80
2022-11-24T04:41:37.977Z,4.70
2022-11-24T04:44:04.362Z,3.70
2022-11-24T04:46:31.312Z,4.18
2022-11-24T04:48:57.701Z,4.20
2022-11-24T04:51:24.001Z,4.40
2022-11-24T04:53:50.389Z,3.65
2022-11-24T04:56:16.815Z,3.90
2022-11-24T04:58:43.309Z,3.25
2022-11-24T05:01:09.754Z,4.10
2022-11-24T05:03:36.502Z,4.45
2022-11-24T05:06:02.868Z,3.75
2022-11-24T05:08:29.206Z,3.63
2022-11-24T05:10:55.560Z,2.92
2022-11-24T05:13:21.882Z,2.90
2022-11-24T05:15:48.318Z,2.80
2022-11-24T05:18:16.318Z,2.50
2022-11-24T05:20:44.622Z,2.00
2022-11-24T05:23:11.441Z,1.75
2022-11-24T05:25:37.854Z,1.65
2022-11-24T05:28:05.730Z,1.80
2022-11-24T05:30:32.144Z,1.80
2022-11-24T05:32:58.845Z,1.55
2022-11-24T05:35:25.467Z,1.25
2022-11-24T05:37:51.865Z,1.20
2022-11-24T05:40:18.434Z,1.15
2022-11-24T05:42:47.782Z,1.02
2022-11-24T05:45:16.498Z,1.15
2022-11-24T05:47:42.877Z,1.20
2022-11-24T05:50:10.218Z,1.13
2022-11-24T05:52:36.613Z,1.05
2022-11-24T05:55:03.601Z,1.00
2022-11-24T05:57:30.017Z,1.08
2022-11-24T05:59:56.610Z,0.93
2022-11-24T06:02:23.152Z,0.95
2022-11-24T06:04:49.794Z,1.00
2022-11-24T06:07:16.158Z,1.00
2022-11-24T06:09:43.191Z,0.80
2022-11-24T06:12:10.713Z,1.30
2022-11-24T06:14:37.442Z,0.77
2022-11-24T06:17:04.207Z,0.90
2022-11-24T06:19:30.866Z,0.90
2022-11-24T06:21:57.575Z,1.63
2022-11-24T06:24:23.961Z,1.42
2022-11-24T06:26:50.498Z,1.25
2022-11-24T06:29:17.032Z,1.20
2022-11-24T06:31:43.469Z,1.20
2022-11-24T06:34:11.628Z,1.30
2022-11-24T06:36:38.293Z,1.80
2022-11-24T06:39:06.429Z,1.75
2022-11-24T06:41:32.733Z,2.30
2022-11-24T06:43:59.135Z,2.22
2022-11-24T06:46:25.563Z,2.10
2022-11-24T06:48:52.817Z,2.50
2022-11-24T06:51:19.379Z,2.20
2022-11-24T06:53:45.895Z,2.40
2022-11-24T06:56:16.710Z,2.40
2022-11-24T07:01:37.491Z,2.58
2022-11-24T07:04:04.384Z,2.92
2022-11-24T07:06:31.200Z,3.00
2022-11-24T07:08:57.856Z,3.22
2022-11-24T07:11:24.957Z,3.40
2022-11-24T07:13:55.124Z,3.40
2022-11-24T07:16:26.554Z,4.10
2022-11-24T07:18:53.529Z,4.78
2022-11-24T07:21:20.895Z,4.30
2022-11-24T07:23:51.062Z,5.32
2022-11-24T07:26:17.869Z,5.45
2022-11-24T07:28:44.708Z,4.82
2022-11-24T07:31:13.293Z,4.65
2022-11-24T07:33:40.069Z,5.53
2022-11-24T07:36:16.566Z,5.35
2022-11-24T07:38:43.451Z,5.22
2022-11-24T07:41:10.814Z,5.05
2022-11-24T07:43:37.732Z,5.60
2022-11-24T07:46:04.991Z,5.35
2022-11-24T07:48:32.049Z,6.43
2022-11-24T07:51:02.153Z,5.30
2022-11-24T07:53:28.754Z,6.50
2022-11-24T07:55:56.303Z,5.45
2022-11-24T07:58:23.008Z,6.38
2022-11-24T08:00:49.677Z,6.43
2022-11-24T08:03:16.294Z,5.70
2022-11-24T08:06:07.759Z,5.78
2022-11-24T08:08:33.387Z,6.78
2022-11-24T08:11:07.066Z,6.95
2022-11-24T08:13:33.668Z,5.47
2022-11-24T08:16:03.408Z,5.70
2022-11-24T08:18:29.718Z,5.43
2022-11-24T08:20:57.564Z,6.13
2022-11-24T08:23:24.016Z,5.40
2022-11-24T08:25:54.236Z,5.75
2022-11-24T08:28:23.593Z,6.30
2022-11-24T08:30:49.955Z,5.57
2022-11-24T08:33:16.422Z,5.80
2022-11-24T08:35:42.840Z,5.85
2022-11-24T08:38:09.357Z,5.55
2022-11-24T08:40:35.736Z,5.60
2022-11-24T08:43:02.231Z,5.72
2022-11-24T08:45:30.639Z,5.90
2022-11-24T08:47:57.723Z,6.20
2022-11-24T08:50:24.653Z,5.85
2022-11-24T08:52:51.583Z,6.10
2022-11-24T08:55:18.056Z,6.00
2022-11-24T08:57:44.452Z,6.30
2022-11-24T09:00:11.258Z,5.82
2022-11-24T09:02:37.838Z,6.03
2022-11-24T09:05:07.258Z,5.35
2022-11-24T09:07:44.087Z,5.03
2022-11-24T09:10:10.545Z,4.45
2022-11-24T09:12:36.903Z,6.82
2022-11-24T09:15:03.270Z,6.43
2022-11-24T09:17:29.656Z,5.40
2022-11-24T09:19:56.042Z,6.07
2022-11-24T09:22:22.370Z,5.00
2022-11-24T09:24:48.720Z,5.03
2022-11-24T09:27:15.110Z,5.40
2022-11-24T09:29:41.549Z,4.95
2022-11-24T09:32:07.976Z,4.78
2022-11-24T09:34:34.373Z,5.18
2022-11-24T09:37:01.317Z,4.80
2022-11-24T09:39:27.801Z,5.35
2022-11-24T09:42:03.370Z,4.72
2022-11-24T09:44:41.786Z,4.07
2022-11-24T09:47:31.692Z,3.67
2022-11-24T09:49:59.845Z,4.00
2022-11-24T09:52:32.217Z,4.20
2022-11-24T09:55:01.079Z,3.60
2022-11-24T09:57:32.724Z,4.00
2022-11-24T10:00:07.621Z,3.67
2022-11-24T10:02:38.091Z,3.38
2022-11-24T10:05:05.118Z,2.90
2022-11-24T10:07:37.963Z,4.00
2022-11-24T10:10:18.590Z,2.95
2022-11-24T10:12:55.355Z,3.22
2022-11-24T10:15:34.010Z,2.85
2022-11-24T10:18:09.289Z,3.42
2022-11-24T10:20:38.332Z,3.67
2022-11-24T10:23:23.142Z,2.92
2022-11-24T10:25:59.622Z,2.67
2022-11-24T10:28:38.162Z,3.28
2022-11-24T10:31:33.931Z,3.42
2022-11-24T10:34:14.838Z,2.60
2022-11-24T10:36:49.377Z,2.58
2022-11-24T10:39:36.611Z,3.28
2022-11-24T10:42:20.368Z,3.15
2022-11-24T10:44:46.695Z,3.33
2022-11-24T10:47:19.992Z,2.95
2022-11-24T10:50:05.350Z,3.08
2022-11-24T10:52:36.694Z,3.67
2022-11-24T10:55:07.154Z,3.33
2022-11-24T10:57:35.071Z,3.25
2022-11-24T11:00:03.451Z,3.20
2022-11-24T11:02:35.197Z,2.75
2022-11-24T11:05:20.128Z,3.20
2022-11-24T11:07:46.983Z,3.22
2022-11-24T11:10:18.686Z,3.10
2022-11-24T11:12:45.658Z,3.13
2022-11-24T11:15:25.328Z,3.17
2022-11-24T11:17:54.419Z,3.50
2022-11-24T11:20:28.686Z,3.50
2022-11-24T11:22:56.365Z,3.53
2022-11-24T11:25:24.594Z,3.95
2022-11-24T11:27:51.186Z,3.85
2022-11-24T11:36:10.961Z,2.92
2022-11-24T11:38:38.243Z,3.10
2022-11-24T11:41:05.767Z,3.33
2022-11-24T11:43:34.553Z,3.60
2022-11-24T11:46:09.966Z,3.65
2022-11-24T11:48:43.066Z,3.33
2022-11-24T11:51:25.640Z,4.03
2022-11-24T11:54:04.979Z,3.05
2022-11-24T11:56:34.836Z,5.43
2022-11-24T11:59:20.213Z,3.28
2022-11-24T12:01:57.391Z,3.45
2022-11-24T12:04:46.693Z,4.82
2022-11-24T12:07:25.044Z,3.08
2022-11-24T12:09:51.540Z,3.13
2022-11-24T12:12:17.879Z,3.40
2022-11-24T12:14:52.846Z,3.80
2022-11-24T12:17:19.158Z,3.45
2022-11-24T12:19:56.401Z,3.05
2022-11-24T12:22:28.368Z,3.63
2022-11-24T12:24:57.894Z,3.53
2022-11-24T12:27:49.291Z,3.53
2022-11-24T12:32:45.023Z,3.55
2022-11-24T12:35:30.207Z,3.70
2022-11-24T12:38:11.901Z,3.35
2022-11-24T12:40:50.471Z,4.50
2022-11-24T12:43:23.028Z,4.10
2022-11-24T12:45:52.177Z,3.67
2022-11-24T12:48:21.674Z,3.58
2022-11-24T12:50:48.743Z,3.45
2022-11-24T12:53:17.819Z,3.33
2022-11-24T12:55:44.606Z,5.30
2022-11-24T12:58:17.073Z,3.85
2022-11-24T13:00:43.409Z,3.53
2022-11-24T13:03:12.791Z,4.28
2022-11-24T13:05:46.356Z,3.90
2022-11-24T13:08:16.099Z,3.50
2022-11-24T13:10:58.218Z,3.33
2022-11-24T13:13:29.279Z,3.72
2022-11-24T13:18:58.699Z,4.10
2022-11-24T13:21:31.070Z,4.28
2022-11-24T13:24:01.862Z,2.90
2022-11-24T13:26:43.513Z,3.20
2022-11-24T13:29:42.188Z,2.58
2022-11-24T13:32:08.533Z,3.25
2022-11-24T13:34:41.235Z,4.07
2022-11-24T13:37:28.881Z,3.83
2022-11-24T13:40:22.429Z,3.17
2022-11-24T13:42:54.700Z,3.22
2022-11-24T13:45:39.241Z,3.08
2022-11-24T13:48:21.406Z,3.40
2022-11-24T13:50:51.537Z,3.40
2022-11-24T13:53:37.033Z,3.10
2022-11-24T13:56:12.474Z,3.55
2022-11-24T13:58:43.463Z,3.63
2022-11-24T14:01:16.269Z,3.78
2022-11-24T14:06:40.262Z,3.58
2022-11-24T14:09:32.810Z,3.58
2022-11-24T14:12:01.448Z,3.28
2022-11-24T14:14:27.868Z,3.60
2022-11-24T14:17:12.538Z,4.18
2022-11-24T14:19:39.291Z,3.25
2022-11-24T14:22:05.818Z,3.63
2022-11-24T14:24:36.785Z,4.45
2022-11-24T14:27:13.648Z,3.92
2022-11-24T14:29:54.107Z,3.97
2022-11-24T14:32:21.832Z,4.28
2022-11-24T14:34:48.284Z,3.42
2022-11-24T14:37:14.661Z,3.50
2022-11-24T14:39:42.202Z,4.20
2022-11-24T14:42:25.046Z,3.33
2022-11-24T14:45:03.605Z,3.13
2022-11-24T14:47:34.399Z,3.10
2022-11-24T14:50:08.985Z,3.42
2022-11-24T14:52:35.756Z,3.75
2022-11-24T14:55:21.274Z,3.65
2022-11-24T14:57:48.162Z,3.95
2022-11-24T15:00:19.300Z,3.13
2022-11-24T15:05:13.907Z,3.15
2022-11-24T15:07:47.000Z,3.38
2022-11-24T15:10:19.154Z,3.50
2022-11-24T15:12:51.150Z,2.60
2022-11-24T15:15:22.359Z,3.33
2022-11-24T15:17:53.685Z,3.63
2022-11-24T15:20:26.723Z,3.53
2022-11-24T15:23:12.256Z,3.40
2022-11-24T15:25:39.187Z,3.78
2022-11-24T15:28:05.639Z,4.45
2022-11-24T15:30:33.829Z,2.75
2022-11-24T15:33:00.229Z,3.28
2022-11-24T15:35:29.277Z,3.40
2022-11-24T15:37:55.692Z,3.55
2022-11-24T15:40:22.218Z,3.80
2022-11-24T15:42:52.826Z,3.38
2022-11-24T15:45:20.168Z,3.15
2022-11-24T15:47:46.583Z,2.92
2022-11-24T15:50:13.700Z,3.45
2022-11-24T15:52:40.333Z,3.92
2022-11-24T15:55:07.060Z,3.35
2022-11-24T15:57:34.203Z,2.92
2022-11-24T16:00:00.667Z,3.08
2022-11-24T16:02:27.260Z,3.95
2022-11-24T16:04:53.699Z,2.95
2022-11-24T16:07:20.057Z,3.28
2022-11-24T16:09:46.674Z,3.10
2022-11-24T16:12:13.104Z,4.53
2022-11-24T16:14:39.736Z,3.85
2022-11-24T16:17:06.179Z,3.58
2022-11-24T16:19:36.131Z,3.55
2022-11-24T16:22:06.332Z,4.20
2022-11-24T16:24:33.030Z,3.15
2022-11-24T16:26:59.785Z,3.30
2022-11-24T16:29:26.225Z,3.30
2022-11-24T16:31:52.665Z,3.30
2022-11-24T16:34:19.089Z,3.80
2022-11-24T16:36:45.477Z,3.85
2022-11-24T16:39:13.110Z,3.05
2022-11-24T16:41:39.643Z,3.97
2022-11-24T16:44:06.449Z,3.15
2022-11-24T16:46:32.909Z,3.38
2022-11-24T16:49:03.545Z,3.38
2022-11-24T16:51:35.105Z,3.08
2022-11-24T16:54:02.335Z,3.35
2022-11-24T16:56:29.122Z,2.78
2022-11-24T16:58:56.800Z,3.42
2022-11-24T17:01:23.542Z,3.17
2022-11-24T17:03:50.079Z,2.78
2022-11-24T17:06:16.783Z,3.55
2022-11-24T17:08:43.919Z,3.03
2022-11-24T17:11:10.375Z,3.85
2022-11-24T17:13:37.189Z,3.65
2022-11-24T17:16:04.561Z,3.45
2022-11-24T17:18:31.129Z,3.83
2022-11-24T17:21:07.838Z,4.13
2022-11-24T17:23:36.000Z,4.05
2022-11-24T17:26:02.930Z,3.50
2022-11-24T17:28:29.482Z,3.38
2022-11-24T17:30:55.892Z,3.58
2022-11-24T17:33:22.281Z,4.10
2022-11-24T17:35:49.183Z,3.30
2022-11-24T17:38:15.510Z,3.25
2022-11-24T17:40:46.148Z,3.35
2022-11-24T17:43:12.618Z,3.63
2022-11-24T17:45:39.051Z,3.30
2022-11-24T17:48:05.595Z,3.90
2022-11-24T17:50:31.896Z,3.28
2022-11-24T17:52:58.187Z,3.95
2022-11-24T17:55:24.499Z,3.35
2022-11-24T17:57:50.827Z,4.22
2022-11-24T18:00:17.434Z,3.67
2022-11-24T18:02:43.811Z,4.03
2022-11-24T18:05:10.228Z,3.17
2022-11-24T18:07:39.105Z,3.08
2022-11-24T18:10:05.892Z,3.40
2022-11-24T18:12:32.285Z,3.50
2022-11-24T18:14:58.955Z,3.05
2022-11-24T18:17:25.425Z,4.13
2022-11-24T18:19:51.770Z,3.67
2022-11-24T18:22:21.040Z,3.08
2022-11-24T18:24:53.698Z,3.97
2022-11-24T18:27:20.053Z,3.40
2022-11-24T18:29:46.526Z,3.40
2022-11-24T18:32:12.921Z,3.95
2022-11-24T18:34:39.318Z,3.17
2022-11-24T18:37:05.823Z,3.35
2022-11-24T18:39:32.134Z,3.50
2022-11-24T18:41:58.473Z,2.95
2022-11-24T18:44:24.834Z,3.53
2022-11-24T18:46:51.135Z,4.00
2022-11-24T18:49:17.537Z,2.90
2022-11-24T18:51:44.005Z,3.67
2022-11-24T18:54:10.346Z,2.83
2022-11-24T18:56:36.674Z,3.17
2022-11-24T18:59:03.076Z,3.50
2022-11-24T19:01:29.575Z,4.13
2022-11-24T19:03:57.265Z,3.33
2022-11-24T19:06:31.852Z,3.45
2022-11-24T19:08:58.988Z,3.97
2022-11-24T19:11:28.107Z,3.67
2022-11-24T19:13:54.922Z,3.53
2022-11-24T19:16:21.649Z,3.58
2022-11-24T19:18:54.134Z,3.58
2022-11-24T19:21:21.132Z,3.50
2022-11-24T19:23:47.416Z,3.83
2022-11-24T19:26:15.222Z,2.92
2022-11-24T19:28:41.864Z,3.45
2022-11-24T19:31:09.022Z,3.17
2022-11-24T19:33:35.362Z,3.20
2022-11-24T19:36:03.847Z,3.42
2022-11-24T19:38:30.764Z,3.35
2022-11-24T19:41:01.147Z,3.15
2022-11-24T19:43:27.594Z,3.30
2022-11-24T19:45:54.028Z,3.22
2022-11-24T19:48:20.495Z,2.78
2022-11-24T19:50:46.844Z,3.00
2022-11-24T19:53:13.128Z,3.45
2022-11-24T19:55:39.499Z,3.50
2022-11-24T19:58:05.921Z,3.63
2022-11-24T20:00:32.468Z,3.22
2022-11-24T20:02:59.014Z,2.90
2022-11-24T20:05:25.419Z,3.10
2022-11-24T20:07:52.159Z,3.13
2022-11-24T20:10:18.747Z,3.95
2022-11-24T20:12:45.089Z,3.17
2022-11-24T20:15:11.584Z,3.00
2022-11-24T20:17:38.007Z,3.35
2022-11-24T20:20:04.770Z,3.30
2022-11-24T20:22:32.639Z,3.22
2022-11-24T20:25:01.882Z,4.13
2022-11-24T20:27:28.290Z,2.95
2022-11-24T20:29:54.689Z,3.47
2022-11-24T20:32:21.137Z,3.25
2022-11-24T20:34:47.654Z,3.72
2022-11-24T20:37:14.188Z,2.97
2022-11-24T20:39:40.564Z,3.58
2022-11-24T20:42:07.315Z,3.05
2022-11-24T20:44:33.789Z,3.17
2022-11-24T20:47:01.254Z,3.50
2022-11-24T20:49:27.866Z,3.35
2022-11-24T20:51:54.966Z,3.67
2022-11-24T20:54:21.486Z,3.35
2022-11-24T20:56:47.804Z,3.85
2022-11-24T20:59:15.760Z,3.55
2022-11-24T21:01:43.678Z,2.72
2022-11-24T21:04:11.412Z,3.05
2022-11-24T21:06:38.140Z,3.13
2022-11-24T21:09:05.068Z,3.28
2022-11-24T21:11:31.895Z,3.63
2022-11-24T21:13:58.942Z,2.58
2022-11-24T21:16:28.255Z,3.75
2022-11-24T21:18:58.299Z,3.08
2022-11-24T21:21:25.756Z,3.00
2022-11-24T21:23:52.212Z,3.60
2022-11-24T21:26:18.845Z,2.80
2022-11-24T21:28:45.813Z,3.10
2022-11-24T21:31:13.676Z,3.42
2022-11-24T21:33:41.321Z,3.40
2022-11-24T21:36:08.247Z,3.10
2022-11-24T21:38:34.852Z,3.20
2022-11-24T21:41:02.006Z,3.30
2022-11-24T21:43:29.644Z,3.22
2022-11-24T21:46:10.496Z,3.75
2022-11-24T21:48:38.616Z,2.92
2022-11-24T21:51:06.506Z,3.13
2022-11-24T21:53:34.489Z,3.08
2022-11-24T21:56:02.049Z,3.10
2022-11-24T21:58:29.801Z,3.10
2022-11-24T22:01:01.313Z,4.13
2022-11-24T22:03:27.829Z,3.15
2022-11-24T22:05:55.115Z,3.20
2022-11-24T22:08:21.714Z,4.05
2022-11-24T22:10:48.233Z,3.00
2022-11-24T22:13:15.171Z,3.67
2022-11-24T22:15:41.505Z,3.78
2022-11-24T22:18:07.925Z,3.25
2022-11-24T22:20:34.397Z,3.00
2022-11-24T22:23:01.066Z,3.20
2022-11-24T22:25:27.355Z,3.38
2022-11-24T22:27:53.657Z,3.40
2022-11-24T22:30:20.065Z,3.42
2022-11-24T22:32:46.611Z,3.95
2022-11-24T22:35:13.015Z,3.60
2022-11-24T22:37:39.364Z,3.35
2022-11-24T22:40:06.282Z,3.22
2022-11-24T22:42:32.567Z,3.50
2022-11-24T22:44:58.909Z,3.17
2022-11-24T22:47:25.201Z,3.13
2022-11-24T22:49:51.657Z,3.67
2022-11-24T22:52:18.056Z,3.42
2022-11-24T22:54:44.426Z,3.85
2022-11-24T22:57:10.927Z,3.25
2022-11-24T22:59:37.380Z,2.90
2022-11-24T23:02:03.644Z,4.47
2022-11-24T23:04:30.128Z,3.75
2022-11-24T23:06:56.630Z,3.40
2022-11-24T23:09:23.077Z,3.65
2022-11-24T23:11:49.545Z,3.80
2022-11-24T23:14:16.256Z,3.72
2022-11-24T23:16:42.869Z,3.03
2022-11-24T23:19:09.682Z,3.53
2022-11-24T23:21:38.477Z,3.10
2022-11-24T23:24:05.413Z,3.45
2022-11-24T23:26:32.986Z,4.00
2022-11-24T23:28:59.723Z,3.70
2022-11-24T23:31:29.935Z,3.60
2022-11-24T23:34:00.048Z,4.53
2022-11-24T23:36:26.815Z,3.53
2022-11-24T23:38:53.219Z,3.60
2022-11-24T23:41:20.912Z,4.10
2022-11-24T23:43:47.449Z,3.85
2022-11-24T23:46:21.744Z,3.85
2022-11-24T23:48:50.565Z,4.13
2022-11-24T23:51:17.003Z,3.45
2022-11-24T23:53:44.107Z,4.30
2022-11-24T23:56:11.917Z,3.53
2022-11-24T23:58:38.284Z,3.97
